Time;durP1;ratioP1;P1;durP2;ratioP2;P2;SDS_P1;SDS_P2;PMS_P1;PMS_P2;Temp;Humidity;BMP_temperature;BMP_pressure;BME280_temperature;BME280_humidity;BME280_pressure;Samples;Min_cycle;Max_cycle;Signal;HPM_P1;HPM_P2
2023/08/08 00:01:59;;;;;;;1.90;0.90;;;;;;;;;;107356;1251;62078;-80
2023/08/08 00:04:25;;;;;;;2.10;1.00;;;;;;;;;;107273;1253;62069;-81
2023/08/08 00:06:52;;;;;;;1.80;1.30;;;;;;;;;;107351;1255;62063;-80
2023/08/08 00:09:18;;;;;;;5.30;2.00;;;;;;;;;;107410;1253;62108;-80
2023/08/08 00:11:44;;;;;;;4.00;2.60;;;;;;;;;;107370;1255;61955;-80
2023/08/08 00:14:11;;;;;;;5.50;3.50;;;;;;;;;;107348;1255;62112;-80
2023/08/08 00:16:37;;;;;;;3.50;2.20;;;;;;;;;;107386;1256;62110;-80
2023/08/08 00:19:04;;;;;;;2.70;1.70;;;;;;;;;;107326;1252;62156;-80
2023/08/08 00:21:30;;;;;;;4.80;2.10;;;;;;;;;;107320;1254;62156;-80
2023/08/08 00:23:56;;;;;;;2.10;1.50;;;;;;;;;;107309;1251;62214;-80
2023/08/08 00:26:23;;;;;;;3.30;1.90;;;;;;;;;;107314;1251;62115;-80
2023/08/08 00:28:49;;;;;;;2.60;1.60;;;;;;;;;;107302;1251;62047;-81
2023/08/08 00:31:17;;;;;;;4.40;2.10;;;;;;;;;;107281;1251;62054;-80
2023/08/08 00:33:44;;;;;;;3.60;1.60;;;;;;;;;;107347;1251;62147;-79
2023/08/08 00:36:10;;;;;;;1.10;1.00;;;;;;;;;;107354;1253;62141;-80
2023/08/08 00:38:36;;;;;;;2.70;1.30;;;;;;;;;;107345;1251;63166;-81
2023/08/08 00:41:04;;;;;;;3.90;2.00;;;;;;;;;;107309;1250;62147;-80
2023/08/08 00:43:31;;;;;;;2.40;1.30;;;;;;;;;;107385;1254;60964;-80
2023/08/08 00:45:57;;;;;;;2.00;1.30;;;;;;;;;;107485;1254;61942;-80
2023/08/08 00:48:24;;;;;;;1.70;1.20;;;;;;;;;;107394;1251;62063;-80
2023/08/08 00:50:50;;;;;;;2.20;1.50;;;;;;;;;;107356;1256;62115;-80
2023/08/08 00:53:17;;;;;;;2.20;1.00;;;;;;;;;;107377;1256;62037;-80
2023/08/08 00:55:43;;;;;;;3.20;1.30;;;;;;;;;;107372;1263;62230;-80
2023/08/08 00:58:10;;;;;;;2.80;1.40;;;;;;;;;;107368;1251;61883;-80
2023/08/08 01:00:36;;;;;;;4.30;2.30;;;;;;;;;;107478;1254;62148;-80
2023/08/08 01:03:03;;;;;;;3.30;1.20;;;;;;;;;;107421;1250;62016;-80
2023/08/08 01:05:31;;;;;;;2.40;1.20;;;;;;;;;;107354;1256;62156;-80
2023/08/08 01:08:03;;;;;;;3.70;1.50;;;;;;;;;;107358;1254;62711;-80
2023/08/08 01:10:32;;;;;;;3.50;1.40;;;;;;;;;;107426;1250;60437;-80
2023/08/08 01:13:06;;;;;;;3.80;2.10;;;;;;;;;;107347;1251;62038;-80
2023/08/08 01:15:35;;;;;;;3.60;1.50;;;;;;;;;;107515;1253;61923;-80
2023/08/08 01:18:05;;;;;;;3.40;1.60;;;;;;;;;;107324;1251;62139;-80
2023/08/08 01:20:34;;;;;;;3.40;1.50;;;;;;;;;;107358;1254;62037;-80
2023/08/08 01:23:19;;;;;;;1.70;1.10;;;;;;;;;;107366;1251;61958;-81
2023/08/08 01:25:45;;;;;;;2.00;1.20;;;;;;;;;;107416;1251;62108;-80
2023/08/08 01:28:12;;;;;;;3.10;1.70;;;;;;;;;;107451;1251;62039;-80
2023/08/08 01:30:39;;;;;;;2.00;1.10;;;;;;;;;;107391;1253;62146;-80
2023/08/08 01:33:06;;;;;;;3.50;1.50;;;;;;;;;;107434;1253;62057;-80
2023/08/08 01:35:34;;;;;;;2.70;1.10;;;;;;;;;;107427;1253;62043;-81
2023/08/08 01:38:02;;;;;;;4.70;1.50;;;;;;;;;;107410;1250;62113;-80
2023/08/08 01:40:29;;;;;;;6.90;3.60;;;;;;;;;;107394;1250;61971;-80
2023/08/08 01:42:55;;;;;;;5.30;3.20;;;;;;;;;;107367;1253;62162;-81
2023/08/08 01:45:24;;;;;;;2.00;1.50;;;;;;;;;;107530;1250;62061;-81
2023/08/08 01:47:51;;;;;;;2.90;1.10;;;;;;;;;;107461;1251;61911;-81
2023/08/08 01:50:17;;;;;;;6.00;2.30;;;;;;;;;;107409;1253;62037;-81
2023/08/08 01:52:44;;;;;;;3.50;1.90;;;;;;;;;;107387;1254;62440;-80
2023/08/08 01:55:10;;;;;;;4.90;1.60;;;;;;;;;;107357;1253;62016;-81
2023/08/08 01:57:37;;;;;;;9.40;3.70;;;;;;;;;;107402;1251;62040;-80
2023/08/08 02:00:04;;;;;;;7.40;3.10;;;;;;;;;;107378;1251;62152;-81
2023/08/08 02:02:31;;;;;;;14.30;7.30;;;;;;;;;;107314;1252;61918;-81
2023/08/08 02:04:57;;;;;;;3.90;1.50;;;;;;;;;;107362;1252;62146;-80
2023/08/08 02:07:24;;;;;;;5.30;1.40;;;;;;;;;;107364;1257;62095;-80
2023/08/08 02:09:50;;;;;;;5.20;2.10;;;;;;;;;;107341;1251;62020;-80
2023/08/08 02:12:17;;;;;;;6.80;3.80;;;;;;;;;;107341;1255;61927;-80
2023/08/08 02:14:43;;;;;;;1.90;1.40;;;;;;;;;;107358;1251;61959;-80
2023/08/08 02:17:10;;;;;;;8.00;1.70;;;;;;;;;;107394;1251;60937;-80
2023/08/08 02:19:36;;;;;;;4.60;2.80;;;;;;;;;;107342;1251;62118;-80
2023/08/08 02:22:03;;;;;;;3.70;1.30;;;;;;;;;;107394;1254;62240;-80
2023/08/08 02:24:29;;;;;;;3.20;1.60;;;;;;;;;;107334;1254;62157;-81
2023/08/08 02:26:55;;;;;;;2.50;1.00;;;;;;;;;;107322;1250;62161;-80
2023/08/08 02:29:22;;;;;;;5.40;1.70;;;;;;;;;;107316;1251;62150;-80
2023/08/08 02:31:48;;;;;;;2.90;1.80;;;;;;;;;;107376;1254;62059;-80
2023/08/08 02:34:15;;;;;;;2.00;1.40;;;;;;;;;;107318;1251;62154;-80
2023/08/08 02:36:41;;;;;;;2.90;1.30;;;;;;;;;;107370;1251;62057;-80
2023/08/08 02:39:08;;;;;;;3.10;1.90;;;;;;;;;;107332;1255;62155;-81
2023/08/08 02:41:34;;;;;;;4.20;2.30;;;;;;;;;;107330;1250;62039;-80
2023/08/08 02:44:00;;;;;;;5.50;1.70;;;;;;;;;;107356;1251;62621;-80
2023/08/08 02:46:27;;;;;;;4.70;2.60;;;;;;;;;;107393;1256;62117;-80
2023/08/08 02:48:53;;;;;;;4.30;1.80;;;;;;;;;;107410;1251;62155;-80
2023/08/08 02:51:20;;;;;;;4.00;2.10;;;;;;;;;;107381;1251;62143;-81
2023/08/08 02:53:46;;;;;;;3.20;1.70;;;;;;;;;;107440;1253;62028;-81
2023/08/08 02:56:12;;;;;;;2.00;1.10;;;;;;;;;;107420;1250;61966;-80
2023/08/08 02:58:39;;;;;;;3.50;1.60;;;;;;;;;;107415;1251;62000;-80
2023/08/08 03:01:05;;;;;;;1.70;1.20;;;;;;;;;;107372;1251;62221;-81
2023/08/08 03:03:31;;;;;;;4.40;2.20;;;;;;;;;;107350;1252;62023;-80
2023/08/08 03:05:58;;;;;;;4.80;1.80;;;;;;;;;;107366;1250;62155;-80
2023/08/08 03:08:24;;;;;;;5.60;1.80;;;;;;;;;;107406;1251;62143;-80
2023/08/08 03:10:50;;;;;;;3.50;1.60;;;;;;;;;;107306;1252;61978;-80
2023/08/08 03:13:17;;;;;;;3.10;1.30;;;;;;;;;;107420;1251;62362;-80
2023/08/08 03:15:43;;;;;;;6.80;1.60;;;;;;;;;;107447;1251;61973;-80
2023/08/08 03:18:09;;;;;;;4.60;1.50;;;;;;;;;;107324;1251;62141;-80
2023/08/08 03:20:36;;;;;;;5.10;2.00;;;;;;;;;;107339;1251;62083;-80
2023/08/08 03:23:02;;;;;;;3.30;1.80;;;;;;;;;;107361;1251;62080;-80
2023/08/08 03:25:29;;;;;;;3.30;2.00;;;;;;;;;;107308;1251;62074;-80
2023/08/08 03:27:55;;;;;;;4.00;2.20;;;;;;;;;;107286;1251;62024;-80
2023/08/08 03:30:21;;;;;;;5.60;2.20;;;;;;;;;;107338;1254;62156;-80
2023/08/08 03:32:48;;;;;;;6.30;2.30;;;;;;;;;;107323;1251;62072;-80
2023/08/08 03:35:14;;;;;;;4.80;1.70;;;;;;;;;;107337;1254;62054;-80
2023/08/08 03:37:41;;;;;;;3.90;1.50;;;;;;;;;;107373;1251;62063;-80
2023/08/08 03:40:08;;;;;;;3.90;1.30;;;;;;;;;;108697;1251;62145;-81
2023/08/08 03:42:35;;;;;;;7.60;2.90;;;;;;;;;;107895;1251;62226;-81
2023/08/08 03:45:01;;;;;;;3.20;1.60;;;;;;;;;;107417;1250;62074;-81
2023/08/08 03:47:28;;;;;;;1.40;0.90;;;;;;;;;;107373;1251;62140;-80
2023/08/08 03:49:57;;;;;;;7.30;1.60;;;;;;;;;;107418;1249;62022;-80
2023/08/08 03:52:24;;;;;;;4.50;1.70;;;;;;;;;;107378;1251;60730;-80
2023/08/08 03:54:51;;;;;;;2.40;1.20;;;;;;;;;;107400;1253;61950;-80
2023/08/08 03:57:17;;;;;;;4.40;1.40;;;;;;;;;;107351;1251;62017;-80
2023/08/08 03:59:43;;;;;;;4.40;1.90;;;;;;;;;;107365;1253;62112;-80
2023/08/08 04:02:10;;;;;;;5.60;1.90;;;;;;;;;;107312;1251;61891;-80
2023/08/08 04:04:36;;;;;;;4.80;2.00;;;;;;;;;;107374;1254;61953;-80
2023/08/08 04:07:03;;;;;;;4.50;1.50;;;;;;;;;;107339;1251;62144;-80
2023/08/08 04:09:29;;;;;;;2.90;1.40;;;;;;;;;;107293;1251;62882;-80
2023/08/08 04:11:55;;;;;;;3.20;1.80;;;;;;;;;;107366;1251;62063;-81
2023/08/08 04:14:22;;;;;;;4.00;2.40;;;;;;;;;;107427;1251;61962;-80
2023/08/08 04:16:48;;;;;;;4.50;1.40;;;;;;;;;;107346;1252;61844;-81
2023/08/08 04:19:14;;;;;;;4.30;1.70;;;;;;;;;;107346;1251;62160;-80
2023/08/08 04:21:41;;;;;;;3.30;1.40;;;;;;;;;;107358;1251;60265;-81
2023/08/08 04:24:07;;;;;;;2.90;2.00;;;;;;;;;;107369;1251;62027;-80
2023/08/08 04:26:34;;;;;;;1.50;1.10;;;;;;;;;;107353;1251;62150;-80
2023/08/08 04:29:00;;;;;;;5.70;2.20;;;;;;;;;;107364;1251;62091;-80
2023/08/08 04:31:27;;;;;;;4.50;1.60;;;;;;;;;;107293;1254;62135;-80
2023/08/08 04:33:58;;;;;;;3.30;2.10;;;;;;;;;;107334;1250;61965;-81
2023/08/08 04:36:25;;;;;;;4.00;1.70;;;;;;;;;;107320;1250;62259;-80
2023/08/08 04:38:52;;;;;;;5.10;2.30;;;;;;;;;;107324;1251;62180;-81
2023/08/08 04:41:18;;;;;;;8.70;3.20;;;;;;;;;;107372;1254;62049;-80
2023/08/08 04:43:44;;;;;;;10.00;3.90;;;;;;;;;;107398;1253;61952;-80
2023/08/08 04:46:11;;;;;;;4.50;1.80;;;;;;;;;;107384;1251;62227;-80
2023/08/08 04:48:38;;;;;;;4.70;1.90;;;;;;;;;;107359;1251;61983;-80
2023/08/08 04:51:04;;;;;;;5.10;2.10;;;;;;;;;;107416;1249;62584;-80
2023/08/08 04:53:31;;;;;;;6.00;2.60;;;;;;;;;;107423;1251;62045;-80
2023/08/08 04:55:57;;;;;;;4.30;1.70;;;;;;;;;;107398;1250;62203;-79
2023/08/08 04:58:24;;;;;;;5.70;1.90;;;;;;;;;;107414;1251;62126;-80
2023/08/08 05:00:54;;;;;;;14.80;3.70;;;;;;;;;;107343;1251;62057;-80
2023/08/08 05:03:21;;;;;;;3.10;1.70;;;;;;;;;;107322;1251;61952;-80
2023/08/08 05:05:47;;;;;;;2.90;1.70;;;;;;;;;;107399;1251;62158;-80
2023/08/08 05:08:14;;;;;;;5.00;2.00;;;;;;;;;;107371;1251;62522;-80
2023/08/08 05:10:40;;;;;;;9.00;3.00;;;;;;;;;;107320;1250;62102;-80
2023/08/08 05:13:07;;;;;;;5.50;2.00;;;;;;;;;;107433;1254;62057;-80
2023/08/08 05:15:33;;;;;;;3.50;2.50;;;;;;;;;;107404;1250;62249;-80
2023/08/08 05:17:59;;;;;;;7.30;2.50;;;;;;;;;;107339;1249;62146;-80
2023/08/08 05:20:26;;;;;;;3.10;1.70;;;;;;;;;;107440;1252;62069;-80
2023/08/08 05:22:52;;;;;;;3.90;2.00;;;;;;;;;;107365;1251;62156;-79
2023/08/08 05:25:19;;;;;;;6.00;1.70;;;;;;;;;;107362;1251;62069;-80
2023/08/08 05:27:46;;;;;;;3.90;1.90;;;;;;;;;;107281;1251;62041;-80
2023/08/08 05:30:13;;;;;;;5.20;1.90;;;;;;;;;;107325;1251;61961;-80
2023/08/08 05:32:39;;;;;;;6.00;2.00;;;;;;;;;;107367;1250;62108;-80
2023/08/08 05:35:06;;;;;;;4.70;1.70;;;;;;;;;;107460;1249;61149;-80
2023/08/08 05:37:32;;;;;;;4.70;1.90;;;;;;;;;;107386;1251;62066;-80
2023/08/08 05:39:59;;;;;;;5.40;1.90;;;;;;;;;;107377;1250;62124;-80
2023/08/08 05:42:25;;;;;;;5.10;3.00;;;;;;;;;;107568;1249;62445;-80
2023/08/08 05:44:51;;;;;;;4.30;2.10;;;;;;;;;;107373;1251;62052;-80
2023/08/08 05:47:18;;;;;;;2.20;1.50;;;;;;;;;;107411;1249;62179;-80
2023/08/08 05:49:44;;;;;;;4.00;2.20;;;;;;;;;;107488;1250;60268;-80
2023/08/08 05:52:11;;;;;;;6.20;1.90;;;;;;;;;;107538;1250;62138;-80
2023/08/08 05:54:38;;;;;;;4.40;2.00;;;;;;;;;;107426;1249;62028;-80
2023/08/08 05:57:04;;;;;;;2.20;1.50;;;;;;;;;;107417;1253;62387;-80
2023/08/08 05:59:30;;;;;;;3.60;1.30;;;;;;;;;;107430;1253;61956;-80
2023/08/08 06:01:58;;;;;;;5.10;2.10;;;;;;;;;;107385;1251;62139;-80
2023/08/08 06:04:25;;;;;;;7.20;3.10;;;;;;;;;;107517;1250;62042;-80
2023/08/08 06:06:51;;;;;;;4.00;1.60;;;;;;;;;;107568;1250;62016;-80
2023/08/08 06:09:17;;;;;;;6.00;2.40;;;;;;;;;;107570;1250;62164;-80
2023/08/08 06:11:44;;;;;;;2.80;1.80;;;;;;;;;;107434;1250;62149;-80
2023/08/08 06:14:10;;;;;;;4.60;2.20;;;;;;;;;;107452;1250;62131;-80
2023/08/08 06:16:37;;;;;;;7.80;1.60;;;;;;;;;;107682;1249;62047;-80
2023/08/08 06:19:03;;;;;;;2.70;1.70;;;;;;;;;;107623;1250;62122;-80
2023/08/08 06:21:29;;;;;;;4.20;1.40;;;;;;;;;;107528;1253;62031;-80
2023/08/08 06:23:56;;;;;;;5.60;2.20;;;;;;;;;;107524;1248;62088;-80
2023/08/08 06:26:22;;;;;;;2.50;1.30;;;;;;;;;;107667;1251;62082;-80
2023/08/08 06:28:48;;;;;;;8.90;1.90;;;;;;;;;;107490;1249;63020;-80
2023/08/08 06:31:15;;;;;;;2.50;1.80;;;;;;;;;;107507;1249;62060;-81
2023/08/08 06:33:41;;;;;;;2.90;1.70;;;;;;;;;;107509;1249;62044;-80
2023/08/08 06:36:08;;;;;;;8.20;1.80;;;;;;;;;;107608;1249;62114;-80
2023/08/08 06:38:34;;;;;;;5.60;2.80;;;;;;;;;;107499;1250;61948;-81
2023/08/08 06:41:04;;;;;;;3.20;1.70;;;;;;;;;;107889;1253;62029;-82
2023/08/08 06:43:30;;;;;;;6.60;2.60;;;;;;;;;;107911;1249;61971;-81
2023/08/08 06:45:57;;;;;;;3.80;1.80;;;;;;;;;;107685;1253;62238;-81
2023/08/08 06:48:23;;;;;;;2.70;1.20;;;;;;;;;;107812;1249;61980;-81
2023/08/08 06:50:50;;;;;;;6.30;2.40;;;;;;;;;;108014;1249;62076;-81
2023/08/08 06:53:16;;;;;;;4.30;1.90;;;;;;;;;;108123;1251;60448;-81
2023/08/08 06:55:42;;;;;;;6.30;1.90;;;;;;;;;;108157;1254;62034;-81
2023/08/08 06:58:09;;;;;;;5.60;1.70;;;;;;;;;;108054;1252;60358;-80
2023/08/08 07:00:35;;;;;;;7.70;2.50;;;;;;;;;;109130;1249;60205;-81
2023/08/08 07:03:02;;;;;;;3.00;1.90;;;;;;;;;;109763;1249;59846;-81
2023/08/08 07:05:29;;;;;;;3.30;1.70;;;;;;;;;;109849;1249;59885;-82
2023/08/08 07:07:55;;;;;;;3.60;1.60;;;;;;;;;;108448;1249;62175;-81
2023/08/08 07:10:22;;;;;;;4.70;1.70;;;;;;;;;;107682;1251;158016;-81
2023/08/08 07:12:48;;;;;;;5.50;2.70;;;;;;;;;;107690;1250;60458;-81
2023/08/08 07:15:15;;;;;;;2.10;1.20;;;;;;;;;;107655;1250;62036;-81
2023/08/08 07:17:41;;;;;;;2.40;1.20;;;;;;;;;;107637;1252;62591;-81
2023/08/08 07:20:08;;;;;;;5.20;2.40;;;;;;;;;;107638;1250;61065;-81
2023/08/08 07:22:35;;;;;;;8.60;2.00;;;;;;;;;;107494;1249;62052;-81
2023/08/08 07:25:03;;;;;;;3.80;1.90;;;;;;;;;;107479;1250;62104;-81
2023/08/08 07:27:29;;;;;;;6.60;1.60;;;;;;;;;;107883;1253;62144;-81
2023/08/08 07:29:55;;;;;;;3.30;1.90;;;;;;;;;;107488;1249;62141;-81
2023/08/08 07:32:22;;;;;;;5.00;2.00;;;;;;;;;;107566;1249;62121;-81
2023/08/08 07:34:48;;;;;;;2.90;1.50;;;;;;;;;;107440;1249;62067;-82
2023/08/08 07:37:15;;;;;;;3.40;1.10;;;;;;;;;;107360;1252;62007;-81
2023/08/08 07:39:41;;;;;;;5.90;1.60;;;;;;;;;;107366;1249;62156;-81
2023/08/08 07:42:09;;;;;;;4.20;1.80;;;;;;;;;;107491;1253;62064;-81
2023/08/08 07:44:38;;;;;;;5.50;2.30;;;;;;;;;;107480;1250;60407;-82
2023/08/08 07:47:04;;;;;;;;;;;;;;;;;;107687;1249;62022;-82
2023/08/08 07:49:30;;;;;;;6.20;2.10;;;;;;;;;;107427;1251;62089;-81
2023/08/08 07:51:57;;;;;;;2.90;1.30;;;;;;;;;;107389;1251;62064;-81
2023/08/08 07:54:23;;;;;;;4.40;1.20;;;;;;;;;;107482;1250;62131;-81
2023/08/08 07:56:50;;;;;;;3.00;1.50;;;;;;;;;;107518;1250;62164;-82
2023/08/08 07:59:16;;;;;;;4.10;1.40;;;;;;;;;;107497;1249;62043;-82
2023/08/08 08:01:43;;;;;;;2.40;1.70;;;;;;;;;;107442;1250;62168;-82
2023/08/08 08:04:09;;;;;;;3.20;1.60;;;;;;;;;;107531;1249;62010;-81
2023/08/08 08:06:36;;;;;;;2.50;1.30;;;;;;;;;;107511;1254;62052;-81
2023/08/08 08:09:03;;;;;;;1.80;1.20;;;;;;;;;;107545;1251;62019;-81
2023/08/08 08:11:29;;;;;;;3.40;2.00;;;;;;;;;;107450;1249;62037;-81
2023/08/08 08:13:56;;;;;;;3.80;1.60;;;;;;;;;;107498;1250;62028;-82
2023/08/08 08:16:22;;;;;;;2.00;1.40;;;;;;;;;;107475;1251;62112;-81
2023/08/08 08:18:49;;;;;;;5.70;3.10;;;;;;;;;;107615;1253;61920;-82
2023/08/08 08:21:17;;;;;;;1.90;1.00;;;;;;;;;;107397;1251;61124;-82
2023/08/08 08:23:44;;;;;;;6.10;1.80;;;;;;;;;;107484;1249;62107;-81
2023/08/08 08:26:11;;;;;;;3.70;1.40;;;;;;;;;;107523;1250;62134;-81
2023/08/08 08:28:37;;;;;;;2.10;1.30;;;;;;;;;;107723;1250;62028;-81
2023/08/08 08:31:07;;;;;;;4.00;1.60;;;;;;;;;;107495;1250;62144;-81
2023/08/08 08:33:33;;;;;;;5.10;2.50;;;;;;;;;;107494;1249;62065;-81
2023/08/08 08:36:00;;;;;;;5.50;2.00;;;;;;;;;;107461;1250;62065;-81
2023/08/08 08:38:26;;;;;;;4.00;1.50;;;;;;;;;;107453;1252;62150;-81
2023/08/08 08:40:53;;;;;;;3.00;1.70;;;;;;;;;;107399;1253;62022;-81
2023/08/08 08:43:20;;;;;;;2.40;1.30;;;;;;;;;;107447;1249;60021;-81
2023/08/08 08:45:50;;;;;;;5.10;2.80;;;;;;;;;;107573;1251;61921;-81
2023/08/08 08:48:18;;;;;;;3.50;1.80;;;;;;;;;;107572;1249;62152;-81
2023/08/08 08:50:45;;;;;;;4.40;2.20;;;;;;;;;;107691;1251;62062;-81
2023/08/08 08:53:11;;;;;;;3.40;1.40;;;;;;;;;;107848;1249;62147;-82
2023/08/08 08:55:38;;;;;;;2.20;1.40;;;;;;;;;;107791;1249;61921;-81
2023/08/08 08:58:04;;;;;;;4.40;1.70;;;;;;;;;;107876;1250;62147;-81
2023/08/08 09:00:31;;;;;;;4.60;2.40;;;;;;;;;;107804;1250;62020;-81
2023/08/08 09:02:57;;;;;;;7.10;2.60;;;;;;;;;;107815;1249;62165;-82
2023/08/08 09:05:25;;;;;;;9.20;3.30;;;;;;;;;;107484;1249;62082;-82
2023/08/08 09:07:51;;;;;;;4.90;2.00;;;;;;;;;;107495;1253;62037;-82
2023/08/08 09:10:18;;;;;;;4.00;2.20;;;;;;;;;;107333;1250;62141;-81
2023/08/08 09:12:44;;;;;;;3.50;1.30;;;;;;;;;;107318;1251;62150;-81
2023/08/08 09:15:11;;;;;;;2.20;1.10;;;;;;;;;;107387;1249;61920;-81
2023/08/08 09:17:44;;;;;;;2.80;1.20;;;;;;;;;;107452;1250;62162;-81
2023/08/08 09:20:12;;;;;;;1.90;1.00;;;;;;;;;;107383;1249;62119;-81
2023/08/08 09:22:38;;;;;;;3.60;1.60;;;;;;;;;;107339;1251;62235;-82
2023/08/08 09:25:05;;;;;;;2.90;1.10;;;;;;;;;;107466;1253;62066;-82
2023/08/08 09:27:31;;;;;;;1.70;1.10;;;;;;;;;;107418;1250;61943;-81
2023/08/08 09:29:58;;;;;;;5.20;1.40;;;;;;;;;;107409;1253;62021;-81
2023/08/08 09:32:28;;;;;;;2.40;1.50;;;;;;;;;;107406;1249;62006;-81
2023/08/08 09:34:55;;;;;;;2.70;1.60;;;;;;;;;;107385;1249;62019;-81
2023/08/08 09:37:22;;;;;;;2.40;1.10;;;;;;;;;;107303;1251;62112;-81
2023/08/08 09:39:58;;;;;;;4.00;1.70;;;;;;;;;;107345;1251;62033;-81
2023/08/08 09:42:25;;;;;;;2.20;1.00;;;;;;;;;;107304;1250;62135;-82
2023/08/08 09:44:52;;;;;;;2.70;1.40;;;;;;;;;;107384;1249;62035;-81
2023/08/08 09:47:20;;;;;;;3.00;1.30;;;;;;;;;;107499;1249;62114;-81
2023/08/08 09:49:46;;;;;;;3.00;1.50;;;;;;;;;;107410;1249;62103;-81
2023/08/08 09:52:13;;;;;;;3.50;1.10;;;;;;;;;;107379;1250;62121;-81
2023/08/08 09:54:39;;;;;;;6.40;2.50;;;;;;;;;;107428;1250;62184;-81
2023/08/08 09:57:06;;;;;;;3.10;1.60;;;;;;;;;;107367;1254;62097;-81
2023/08/08 09:59:33;;;;;;;2.80;1.40;;;;;;;;;;107450;1251;62031;-81
2023/08/08 10:02:00;;;;;;;3.20;1.40;;;;;;;;;;107415;1249;61916;-80
2023/08/08 10:04:26;;;;;;;3.40;1.40;;;;;;;;;;107581;1250;62069;-80
2023/08/08 10:06:53;;;;;;;6.10;1.70;;;;;;;;;;107756;1249;61943;-80
2023/08/08 10:09:19;;;;;;;2.50;1.50;;;;;;;;;;107783;1249;62140;-80
2023/08/08 10:11:46;;;;;;;5.80;2.50;;;;;;;;;;107546;1249;62151;-81
2023/08/08 10:14:14;;;;;;;4.50;1.70;;;;;;;;;;107636;1252;62480;-81
2023/08/08 10:16:41;;;;;;;4.70;1.60;;;;;;;;;;107770;1254;62147;-81
2023/08/08 10:19:08;;;;;;;6.20;1.70;;;;;;;;;;107805;1250;62032;-80
2023/08/08 10:21:35;;;;;;;3.60;1.70;;;;;;;;;;107597;1254;61943;-81
2023/08/08 10:24:04;;;;;;;5.10;1.30;;;;;;;;;;107650;1251;62157;-80
2023/08/08 10:26:31;;;;;;;3.20;1.50;;;;;;;;;;107586;1249;61969;-80
2023/08/08 10:28:58;;;;;;;2.30;1.50;;;;;;;;;;107508;1249;61905;-80
2023/08/08 10:31:24;;;;;;;3.40;1.60;;;;;;;;;;107364;1252;62029;-81
2023/08/08 10:34:00;;;;;;;4.90;1.50;;;;;;;;;;107401;1253;62042;-80
2023/08/08 10:36:33;;;;;;;1.70;1.30;;;;;;;;;;107474;1249;62069;-80
2023/08/08 10:38:59;;;;;;;3.20;1.50;;;;;;;;;;107545;1249;62053;-81
2023/08/08 10:41:26;;;;;;;4.60;1.70;;;;;;;;;;107390;1249;62150;-81
2023/08/08 10:43:56;;;;;;;5.00;1.40;;;;;;;;;;107439;1249;62519;-80
2023/08/08 10:46:24;;;;;;;2.80;1.30;;;;;;;;;;107570;1251;61926;-80
2023/08/08 10:48:51;;;;;;;4.90;1.40;;;;;;;;;;107410;1249;61918;-80
2023/08/08 10:51:17;;;;;;;2.10;1.10;;;;;;;;;;107522;1251;61974;-80
2023/08/08 10:53:44;;;;;;;3.10;1.80;;;;;;;;;;107529;1254;63159;-80
2023/08/08 10:56:12;;;;;;;3.20;1.60;;;;;;;;;;107395;1254;61991;-80
2023/08/08 10:58:42;;;;;;;3.30;1.50;;;;;;;;;;107493;1254;61979;-80
2023/08/08 11:01:09;;;;;;;2.20;1.60;;;;;;;;;;107435;1249;62024;-80
2023/08/08 11:03:36;;;;;;;5.20;2.00;;;;;;;;;;107441;1249;62096;-80
2023/08/08 11:06:03;;;;;;;4.20;1.70;;;;;;;;;;107362;1250;62173;-80
2023/08/08 11:08:33;;;;;;;2.40;1.60;;;;;;;;;;107525;1249;61904;-80
2023/08/08 11:10:59;;;;;;;3.00;1.70;;;;;;;;;;107433;1250;62025;-79
2023/08/08 11:13:26;;;;;;;7.70;2.30;;;;;;;;;;108087;1249;60422;-80
2023/08/08 11:15:52;;;;;;;5.10;2.90;;;;;;;;;;107289;1253;62065;-81
2023/08/08 11:18:18;;;;;;;2.60;1.80;;;;;;;;;;107201;1250;62144;-81
2023/08/08 11:20:45;;;;;;;4.30;1.80;;;;;;;;;;107115;1252;61987;-81
2023/08/08 11:23:13;;;;;;;2.50;1.30;;;;;;;;;;107180;1254;63168;-83
2023/08/08 11:25:40;;;;;;;5.70;2.70;;;;;;;;;;107043;1250;62144;-81
2023/08/08 11:28:06;;;;;;;3.60;1.90;;;;;;;;;;107095;1253;62153;-81
2023/08/08 11:30:33;;;;;;;3.70;1.90;;;;;;;;;;107073;1250;62063;-81
2023/08/08 11:33:00;;;;;;;4.70;3.00;;;;;;;;;;107116;1249;63106;-81
2023/08/08 11:35:29;;;;;;;2.20;1.50;;;;;;;;;;107085;1249;62033;-81
2023/08/08 11:37:56;;;;;;;3.20;1.50;;;;;;;;;;107105;1250;61936;-81
2023/08/08 11:40:27;;;;;;;2.70;1.20;;;;;;;;;;107086;1251;62037;-81
2023/08/08 11:42:53;;;;;;;4.20;1.80;;;;;;;;;;107054;1250;63223;-81
2023/08/08 11:45:19;;;;;;;2.30;1.50;;;;;;;;;;107366;1250;62030;-81
2023/08/08 11:47:49;;;;;;;3.10;1.90;;;;;;;;;;107448;1249;62116;-82
2023/08/08 11:50:16;;;;;;;3.30;1.90;;;;;;;;;;107516;1249;61943;-82
2023/08/08 11:52:42;;;;;;;3.70;2.10;;;;;;;;;;107546;1249;61975;-82
2023/08/08 11:55:09;;;;;;;3.70;1.80;;;;;;;;;;107367;1250;62137;-82
2023/08/08 11:57:36;;;;;;;2.80;1.90;;;;;;;;;;107428;1249;62148;-82
2023/08/08 12:00:12;;;;;;;2.40;1.20;;;;;;;;;;107758;1250;62251;-82
2023/08/08 12:02:39;;;;;;;2.40;1.50;;;;;;;;;;107690;1250;62037;-82
2023/08/08 12:05:09;;;;;;;3.00;1.70;;;;;;;;;;107775;1249;62085;-82
2023/08/08 12:07:35;;;;;;;3.90;1.50;;;;;;;;;;107703;1250;62173;-82
2023/08/08 12:10:05;;;;;;;2.40;1.50;;;;;;;;;;107592;1254;62008;-82
2023/08/08 12:12:34;;;;;;;3.40;1.70;;;;;;;;;;107482;1249;62031;-82
2023/08/08 12:15:05;;;;;;;2.00;0.80;;;;;;;;;;107430;1249;62022;-82
2023/08/08 12:17:32;;;;;;;3.60;1.30;;;;;;;;;;107493;1253;62119;-82
2023/08/08 12:19:59;;;;;;;2.10;1.00;;;;;;;;;;107506;1249;62034;-82
2023/08/08 12:22:26;;;;;;;4.50;1.60;;;;;;;;;;107758;1249;62038;-82
2023/08/08 12:24:52;;;;;;;3.10;1.70;;;;;;;;;;107456;1250;62053;-82
2023/08/08 12:27:19;;;;;;;3.00;1.90;;;;;;;;;;107330;1250;62064;-82
2023/08/08 12:29:45;;;;;;;6.20;2.80;;;;;;;;;;108431;1250;60282;-82
2023/08/08 12:32:12;;;;;;;3.80;2.50;;;;;;;;;;107377;1250;62152;-82
2023/08/08 12:34:38;;;;;;;4.80;2.30;;;;;;;;;;107465;1251;62030;-82
2023/08/08 12:37:05;;;;;;;8.10;4.70;;;;;;;;;;107404;1253;61637;-82
2023/08/08 12:39:31;;;;;;;2.80;1.30;;;;;;;;;;107322;1249;59932;-81
2023/08/08 12:41:57;;;;;;;2.20;1.40;;;;;;;;;;107382;1251;62604;-82
2023/08/08 12:44:24;;;;;;;4.60;1.70;;;;;;;;;;108889;1249;61365;-82
2023/08/08 12:46:50;;;;;;;2.60;1.40;;;;;;;;;;108060;1249;62095;-82
2023/08/08 12:49:17;;;;;;;3.80;1.40;;;;;;;;;;107450;1250;62111;-82
2023/08/08 12:51:43;;;;;;;2.00;1.30;;;;;;;;;;107486;1249;62167;-81
2023/08/08 12:54:10;;;;;;;4.10;1.60;;;;;;;;;;107508;1249;62030;-82
2023/08/08 12:56:36;;;;;;;3.20;1.80;;;;;;;;;;107353;1250;62078;-82
2023/08/08 12:59:02;;;;;;;3.20;1.40;;;;;;;;;;107393;1254;62142;-81
2023/08/08 13:01:29;;;;;;;3.90;2.00;;;;;;;;;;107436;1249;61962;-81
2023/08/08 13:03:56;;;;;;;3.20;1.70;;;;;;;;;;108688;1251;61918;-81
2023/08/08 13:06:22;;;;;;;4.40;1.60;;;;;;;;;;107902;1249;62037;-81
2023/08/08 13:08:49;;;;;;;4.30;1.60;;;;;;;;;;107433;1250;61917;-81
2023/08/08 13:11:15;;;;;;;4.00;1.60;;;;;;;;;;107435;1250;64194;-81
2023/08/08 13:13:41;;;;;;;4.90;1.80;;;;;;;;;;107446;1251;62211;-81
2023/08/08 13:16:08;;;;;;;3.50;1.40;;;;;;;;;;107478;1249;62092;-82
2023/08/08 13:18:34;;;;;;;5.80;1.30;;;;;;;;;;107411;1250;62056;-81
2023/08/08 13:21:01;;;;;;;6.00;1.50;;;;;;;;;;107360;1256;62123;-81
2023/08/08 13:23:28;;;;;;;2.60;1.50;;;;;;;;;;107516;1254;62026;-81
2023/08/08 13:25:54;;;;;;;3.40;1.80;;;;;;;;;;107647;1254;62011;-81
2023/08/08 13:28:21;;;;;;;7.40;1.60;;;;;;;;;;107813;1250;62138;-81
2023/08/08 13:30:48;;;;;;;4.10;1.40;;;;;;;;;;107725;1252;60663;-82
2023/08/08 13:33:14;;;;;;;7.80;1.80;;;;;;;;;;107716;1249;60380;-82
2023/08/08 13:35:40;;;;;;;4.10;1.80;;;;;;;;;;107559;1251;62022;-82
2023/08/08 13:38:14;;;;;;;2.60;1.20;;;;;;;;;;107609;1250;62051;-82
2023/08/08 13:40:41;;;;;;;2.40;1.40;;;;;;;;;;107493;1253;61906;-82
2023/08/08 13:43:07;;;;;;;1.70;1.40;;;;;;;;;;107427;1249;61894;-82
2023/08/08 13:45:33;;;;;;;2.20;1.20;;;;;;;;;;107409;1249;62028;-81
2023/08/08 13:48:00;;;;;;;2.10;1.10;;;;;;;;;;107392;1254;62123;-82
2023/08/08 13:50:27;;;;;;;4.00;2.30;;;;;;;;;;107564;1249;62144;-82
2023/08/08 13:52:54;;;;;;;2.80;1.10;;;;;;;;;;107381;1250;62043;-82
2023/08/08 13:55:20;;;;;;;1.70;1.00;;;;;;;;;;107429;1249;62035;-81
2023/08/08 13:57:47;;;;;;;3.30;1.60;;;;;;;;;;107382;1250;62061;-81
2023/08/08 14:00:14;;;;;;;5.50;1.20;;;;;;;;;;107548;1249;62234;-81
2023/08/08 14:02:41;;;;;;;4.60;1.60;;;;;;;;;;107503;1253;61959;-82
2023/08/08 14:05:07;;;;;;;1.70;1.10;;;;;;;;;;107261;1254;61959;-81
2023/08/08 14:07:34;;;;;;;1.80;1.10;;;;;;;;;;107063;1249;62064;-81
2023/08/08 14:10:01;;;;;;;3.80;1.20;;;;;;;;;;107093;1251;62021;-81
2023/08/08 14:12:28;;;;;;;2.70;1.10;;;;;;;;;;107050;1250;62153;-81
2023/08/08 14:14:54;;;;;;;2.20;1.30;;;;;;;;;;107011;1255;62124;-81
2023/08/08 14:17:20;;;;;;;3.90;2.00;;;;;;;;;;107032;1254;61956;-81
2023/08/08 14:19:47;;;;;;;2.30;1.10;;;;;;;;;;107037;1254;62144;-81
2023/08/08 14:22:14;;;;;;;3.90;1.70;;;;;;;;;;107012;1249;62247;-80
2023/08/08 14:24:41;;;;;;;3.50;1.40;;;;;;;;;;107048;1250;62050;-81
2023/08/08 14:27:08;;;;;;;14.10;3.60;;;;;;;;;;107197;1254;60223;-82
2023/08/08 14:29:34;;;;;;;2.60;1.70;;;;;;;;;;107415;1251;62540;-80